Huntcliff, SC

3:57 AM EST on January 20, 2017 (GMT -0500)
MD4352 | | Change Station

Elev 291 ft 34.12 °N, 80.90 °W | Updated 11 minutes ago

Mostly Cloudy
Mostly Cloudy
55.0 °F
Feels Like 55.0 °F
N
0.0
Wind Variable Wind from ESE
Gusts 1.0 mph

Today
High -- | Low -- °F
--% Chance of Precip.
Yesterday
High -- | Low -- °F
Precip. -- in
Pressure 29.90 in
Visibility 10.0 miles
Clouds Overcast 3600 ft
Dew Point 51.0 °F
Humidity 85%
Rainfall 0.00 in
Snow Depth Not available.
7:27 AM 5:42 PM
Last Quarter, 46% visible
METAR KCUB 200853Z AUTO 15003KT 10SM OVC036 14/10 A2990 RMK AO2 SLP124 T01390100 56017
Pressure 29.90 in
Visibility 10.0 miles
Clouds Overcast 3600 ft
Dew Point 51.0 °F
Humidity 85%
Rainfall 0.00 in
Snow Depth Not available.
7:27 AM 5:42 PM
Last Quarter, 46% visible
METAR KCUB 200853Z AUTO 15003KT 10SM OVC036 14/10 A2990 RMK AO2 SLP124 T01390100 56017

Get Your Daily Forecast Email!

Thanks for signing up!

Be on the lookout for a verification email in your inbox.

You'll start receiving the daily forecast at 8 AM.

×

10-Day Weather Forecast

Almanac

Astronomy

Jan. 20, 2017 Rise Set
Actual Time
Civil Twilight
Nautical Twilight
Astronomical Twilight
Moon
Length of Visible Light
Length of Day
Tomorrow will be .
, % of the Moon is Illuminated

Today's Extremes

State Highs State Lows

Community

WunderPhotos

Upload Photos

1,962,540 photos uploaded!

WunderBlog® & News

Nearby

Air Quality

  Air Quality AQ Index Pollutant
Not available.

Snow Depth

Station Depth Elevation

Earthquake Activity

City Distance Mag. Time & Date
Minimum magnitude displayed is 2.5.

Coastal Water Temperatures

Place Temperature

Stations

Nearby Weather Stations

Station Location Temp. Windchill Dew Point Humidity Wind Precip. Elev Updated Type
                   

Watches & Warnings

There are currently no watches in effect.